Latest Weather Observations for Bedout Island

IDW60801

Issued at 11:33 am WST Wednesday 27 July 2016 (issued every 30 minutes, with the page automatically refreshed every 10 minutes)

About weather observations | Map of weather stations | Latest weather observations for WA | Other Formats
Station Details ID: 004100 Name: BEDOUT ISLAND Lat: -19.59 Lon: 119.10 Height: 8.6 m
Data from the previous 72 hours. | See also: Recent months at Bedout Island
Date/Time
WST
Temp
°C
App
Temp
°C
Dew
Point
°C
Rel
Hum
%
Delta-T
°C
Wind Press
QNH
hPa
Press
MSL
hPa
Rain since
9am
mm
Dir  Spd
km/h
Gust
km/h
Spd
kts
Gust
kts
27/11:30am 24.6 17.5 10.8 42 7.7 ESE 39 46 21 25 1017.0 - -
27/11:00am 23.9 16.1 11.2 44 7.1 E 43 48 23 26 1017.5 - -
27/10:30am 23.5 14.9 8.8 39 7.9 ESE 44 52 24 28 1017.7 - -
27/10:00am 23.0 14.8 10.4 45 6.9 E 44 54 24 29 1017.8 - -
27/09:30am 22.5 13.4 10.0 45 6.8 E 48 54 26 29 1017.8 - -
27/09:00am 22.1 13.2 9.3 44 6.8 ESE 46 54 25 29 1017.8 1017.7 -
27/08:30am 21.9 12.0 8.4 42 7.1 ESE 50 57 27 31 1017.9 - -
27/08:00am 22.1 12.9 10.9 49 6.2 ESE 50 57 27 31 1017.6 - -
27/07:30am 21.9 12.3 9.4 45 6.7 ESE 50 61 27 33 1017.3 - -
27/07:00am 21.9 11.6 9.8 46 6.5 ESE 54 61 29 33 1017.0 - -
27/06:30am 21.8 11.0 9.3 45 6.7 ESE 56 63 30 34 1016.7 - -
27/06:00am 21.8 11.3 8.7 43 6.9 ESE 54 61 29 33 1016.3 1016.2 -
27/05:30am 22.0 11.2 9.2 44 6.8 ESE 56 63 30 34 1016.0 - -
27/05:00am 22.1 11.8 9.6 45 6.7 ESE 54 61 29 33 1015.8 - -
27/04:30am 22.1 11.6 8.9 43 7.0 ESE 54 61 29 33 1015.8 - -
27/04:00am 22.2 11.6 10.0 46 6.6 ESE 56 63 30 34 1015.8 - -
27/03:30am 22.3 12.0 9.5 44 6.9 ESE 54 61 29 33 1015.8 - -
27/03:00am 22.5 11.4 7.9 39 7.6 ESE 56 65 30 35 1015.7 1015.6 -
27/02:30am 22.5 13.1 10.0 45 6.8 SE 50 59 27 32 1016.0 - -
27/02:00am 22.4 13.4 8.9 42 7.2 SE 46 56 25 30 1016.1 - -
27/01:30am 22.4 14.2 10.5 47 6.5 SE 44 54 24 29 1016.4 - -
27/01:00am 22.4 13.7 8.5 41 7.4 SE 44 52 24 28 1016.5 - -
27/12:30am 22.6 14.1 9.4 43 7.1 SE 44 52 24 28 1016.7 - -
27/12:00am 22.8 15.4 11.2 48 6.4 SE 41 48 22 26 1016.8 1016.7 -
 
Date/Time
WST
Temp
°C
App
Temp
°C
Dew
Point
°C
Rel
Hum
%
Delta-T
°C
Wind Press
QNH
hPa
Press
MSL
hPa
Rain since
9am
mm
Dir  Spd
km/h
Gust
km/h
Spd
kts
Gust
kts
26/11:30pm 22.9 15.7 10.7 46 6.7 SE 39 44 21 24 1017.1 - -
26/11:00pm 22.8 16.9 12.4 52 5.9 SE 35 41 19 22 1017.3 - -
26/10:30pm 22.9 17.1 11.6 49 6.3 SE 33 41 18 22 1017.4 - -
26/10:00pm 23.3 17.4 11.0 46 6.8 SE 33 41 18 22 1017.4 - -
26/09:30pm 23.4 18.2 12.7 51 6.1 SE 32 37 17 20 1017.5 - -
26/09:00pm 24.0 18.6 12.9 50 6.4 SE 33 39 18 21 1017.5 1017.4 -
26/08:30pm 24.0 19.2 14.1 54 5.8 SE 32 35 17 19 1017.3 - -
26/08:00pm 24.2 19.6 14.6 55 5.7 ESE 32 35 17 19 1017.1 - -
26/07:30pm 24.4 20.1 14.5 54 5.9 ESE 30 35 16 19 1016.7 - -
26/07:00pm 24.4 21.4 15.9 59 5.2 ESE 26 32 14 17 1016.2 - -
26/06:30pm 25.0 21.4 15.3 55 5.8 ESE 28 32 15 17 1015.8 - -
26/06:00pm 25.0 21.7 15.0 53 6.0 ESE 26 30 14 16 1015.4 1015.3 -
26/05:30pm 25.1 22.1 14.8 52 6.2 ESE 24 28 13 15 1015.1 - -
26/05:00pm 25.6 22.9 15.6 54 6.1 ESE 24 28 13 15 1014.9 - -
26/04:30pm 25.8 22.9 14.0 48 7.0 ESE 22 26 12 14 1014.8 - -
26/04:00pm 26.2 22.2 13.0 44 7.7 ESE 26 28 14 15 1014.7 - -
26/03:30pm 26.3 21.8 12.7 43 7.9 SE 28 32 15 17 1014.6 - -
26/03:00pm 26.8 22.2 12.4 40 8.3 SE 28 32 15 17 1014.9 1014.8 -
26/02:30pm 26.8 22.4 12.8 42 8.2 SE 28 32 15 17 1015.2 - -
26/02:00pm 26.3 21.3 9.6 35 9.2 SE 26 30 14 16 1015.5 - -
26/01:30pm 26.3 21.0 11.2 38 8.6 SE 30 35 16 19 1015.7 - -
26/01:00pm 25.7 19.7 10.7 39 8.4 SE 33 39 18 21 1015.9 - -
26/12:30pm 25.4 19.0 10.8 40 8.2 SE 35 41 19 22 1016.3 - -
26/11:30am 24.5 16.8 8.5 36 8.6 SE 39 44 21 24 1017.5 - -
26/11:00am 24.4 15.9 8.4 36 8.5 SE 43 50 23 27 1017.9 - -
26/10:30am 23.8 15.8 10.5 43 7.4 SE 43 48 23 26 1018.3 - -
26/10:00am 23.3 14.4 10.7 45 7.0 ESE 48 56 26 30 1018.4 - -
26/09:30am 22.9 13.5 10.0 44 7.0 SE 50 59 27 32 1018.3 - -
26/09:00am 22.6 13.3 10.4 46 6.7 SE 50 57 27 31 1018.4 1018.3 -
26/08:30am 22.3 12.5 10.1 46 6.6 ESE 52 59 28 32 1018.0 - -
26/08:00am 22.2 12.8 10.0 46 6.6 SE 50 59 27 32 1018.1 - -
26/07:30am 22.1 12.5 9.3 44 6.9 SE 50 57 27 31 1018.0 - -
26/07:00am 22.1 12.8 9.3 44 6.9 ESE 48 56 26 30 1017.4 - -
26/06:30am 21.9 13.6 10.1 47 6.4 ESE 44 52 24 28 1017.1 - -
26/06:00am 22.2 13.1 9.7 45 6.7 ESE 48 56 26 30 1016.5 1016.4 -
26/05:30am 22.3 13.8 10.5 47 6.5 SE 46 54 25 29 1016.2 - -
26/05:00am 22.2 14.0 10.4 47 6.5 SE 44 50 24 27 1016.3 - -
26/04:30am 22.3 14.8 10.8 48 6.3 SE 41 46 22 25 1016.4 - -
26/04:00am 22.6 16.1 11.7 50 6.1 SE 37 44 20 24 1016.4 - -
26/03:30am 22.8 16.8 12.1 51 6.1 SE 35 41 19 22 1016.3 - -
26/03:00am 23.1 18.0 13.0 53 5.8 ESE 32 37 17 20 1016.2 1016.1 -
26/02:30am 23.4 18.1 12.4 50 6.3 ESE 32 37 17 20 1016.1 - -
26/02:00am 23.5 18.5 13.4 53 5.9 ESE 32 35 17 19 1016.2 - -
26/01:30am 23.4 18.9 13.8 54 5.6 ESE 30 33 16 18 1016.3 - -
26/01:00am 23.5 19.0 13.9 55 5.6 ESE 30 33 16 18 1016.6 - -
26/12:30am 23.9 20.2 14.9 57 5.4 ESE 28 33 15 18 1016.7 - -
26/12:00am 23.6 20.6 15.9 62 4.7 ESE 26 30 14 16 1016.5 1016.4 -
 
Date/Time
WST
Temp
°C
App
Temp
°C
Dew
Point
°C
Rel
Hum
%
Delta-T
°C
Wind Press
QNH
hPa
Press
MSL
hPa
Rain since
9am
mm
Dir  Spd
km/h
Gust
km/h
Spd
kts
Gust
kts
25/11:30pm 23.7 20.0 14.9 57 5.2 ESE 28 32 15 17 1016.7 - -
25/11:00pm 23.6 20.5 14.6 57 5.3 ESE 24 28 13 15 1016.8 - -
25/10:30pm 23.0 20.8 14.8 60 4.9 ESE 20 24 11 13 1016.8 - -
25/10:00pm 22.6 21.7 15.9 66 4.0 ESE 15 17 8 9 1016.8 - -
25/09:30pm 22.3 22.1 16.6 70 3.5 ESE 13 15 7 8 1016.9 - -
25/09:00pm 22.2 22.1 16.0 68 3.7 ESE 11 13 6 7 1016.8 1016.7 -
25/08:30pm 23.0 23.8 16.3 66 4.1 ESE 7 7 4 4 1016.6 - -
25/08:00pm 22.5 23.7 17.4 73 3.1 ESE 7 9 4 5 1016.4 - -
25/07:30pm 22.6 23.8 17.3 72 3.3 ESE 7 9 4 5 1016.3 - -
25/07:00pm 22.7 23.3 16.7 69 3.7 ESE 9 9 5 5 1016.0 - -
25/06:30pm 23.1 22.9 15.7 63 4.5 ESE 11 11 6 6 1015.8 - -
25/06:00pm 23.6 23.6 15.1 59 5.1 ESE 9 11 5 6 1015.5 1015.4 -
25/05:30pm 25.2 26.6 14.3 50 6.5 CALM 0 9 0 5 1015.2 - -
25/05:00pm 25.6 25.4 13.5 47 7.1 ESE 7 9 4 5 1015.0 - -
25/04:30pm 26.4 25.7 14.2 47 7.3 ESE 11 13 6 7 1014.8 - -
25/04:00pm 26.4 25.2 13.9 46 7.4 ESE 13 15 7 8 1014.7 - -
25/03:30pm 26.4 24.8 13.9 46 7.4 ESE 15 17 8 9 1014.7 - -
25/03:00pm 26.3 24.0 13.1 44 7.7 ESE 17 20 9 11 1014.7 1014.6 -
25/02:30pm 26.5 23.5 12.5 41 8.1 ESE 20 24 11 13 1014.8 - -
25/02:00pm 26.6 23.2 11.1 38 8.8 ESE 20 24 11 13 1015.1 - -
25/01:30pm 25.9 21.8 11.6 40 8.1 ESE 24 26 13 14 1015.4 - -
25/01:00pm 25.4 21.3 12.6 45 7.4 ESE 26 30 14 16 1015.8 - -
25/12:30pm 25.4 20.5 11.2 41 8.0 ESE 28 32 15 17 1016.3 - -
25/12:00pm 25.0 20.3 13.2 48 6.9 ESE 30 33 16 18 1016.9 1016.8 -
25/11:30am 24.6 19.3 12.5 46 7.0 ESE 32 37 17 20 1017.6 - -
25/11:00am 24.3 18.3 10.9 43 7.5 ESE 33 37 18 20 1017.9 - -
25/10:30am 24.1 17.7 10.7 43 7.4 ESE 35 41 19 22 1018.1 - -
25/10:00am 22.7 15.0 10.2 45 6.8 ESE 41 46 22 25 1018.0 - -
25/09:30am 22.7 14.8 9.5 43 7.1 ESE 41 46 22 25 1018.2 - -
25/09:00am 22.1 14.4 10.3 47 6.4 SE 41 46 22 25 1018.4 1018.3 -
25/08:30am 22.1 14.8 11.5 51 5.9 SE 41 46 22 25 1018.4 - -
25/08:00am 21.7 14.6 10.8 50 6.0 SE 39 44 21 24 1018.2 - -
25/07:30am 21.7 14.1 10.5 49 6.1 SE 41 46 22 25 1017.6 - -
25/07:00am 21.6 14.5 11.0 51 5.8 SE 39 44 21 24 1017.4 - -
25/06:30am 21.6 14.8 11.9 54 5.4 SE 39 44 21 24 1017.3 - -
25/06:00am 21.8 14.9 12.9 57 5.1 SE 41 46 22 25 1016.7 1016.6 -
25/05:30am 21.8 14.1 11.5 52 5.7 SE 43 50 23 27 1016.4 - -
25/05:00am 21.9 14.1 11.3 51 5.9 SE 43 48 23 26 1016.1 - -
25/04:30am 22.1 14.2 11.5 51 5.9 SE 44 50 24 27 1015.9 - -
25/04:00am 22.3 14.6 11.4 50 6.1 SE 43 50 23 27 1015.7 - -
25/03:30am 22.4 14.4 11.2 49 6.2 SE 44 50 24 27 1015.9 - -
25/03:00am 22.8 15.1 12.1 51 6.0 SE 44 50 24 27 1016.1 1016.0 -
25/02:30am 22.9 15.3 11.9 50 6.2 SE 43 48 23 26 1016.3 - -
25/02:00am 23.1 15.5 11.8 49 6.4 SE 43 50 23 27 1016.3 - -
25/01:30am 23.1 15.2 11.5 48 6.5 SE 44 52 24 28 1016.5 - -
25/01:00am 23.4 16.9 13.0 52 6.0 SE 39 44 21 24 1016.7 - -
25/12:30am 23.8 16.7 12.1 48 6.6 SSE 41 50 22 27 1016.9 - -
25/12:00am 23.8 17.6 12.8 50 6.3 SSE 37 41 20 22 1016.9 1016.8 -
 
Date/Time
WST
Temp
°C
App
Temp
°C
Dew
Point
°C
Rel
Hum
%
Delta-T
°C
Wind Press
QNH
hPa
Press
MSL
hPa
Rain since
9am
mm
Dir  Spd
km/h
Gust
km/h
Spd
kts
Gust
kts
24/11:30pm 24.0 18.0 13.2 50 6.3 SSE 37 43 20 23 1016.9 - -
24/11:00pm 24.1 17.8 13.6 52 6.1 SSE 39 44 21 24 1016.9 - -
24/10:30pm 23.9 18.6 14.3 55 5.7 SSE 35 41 19 22 1017.0 - -
24/10:00pm 24.0 18.6 13.8 53 6.0 SSE 35 41 19 22 1017.1 - -
24/09:30pm 24.0 18.4 13.2 50 6.3 SSE 35 43 19 23 1017.2 - -
24/09:00pm 23.9 19.8 14.9 57 5.4 SSE 30 35 16 19 1017.2 1017.1 -
24/08:30pm 24.3 19.9 15.2 57 5.5 SE 32 35 17 19 1017.2 - -
24/08:00pm 24.2 20.4 15.7 59 5.1 SE 30 35 16 19 1017.0 - -
24/07:30pm 24.3 20.3 16.3 61 4.9 ESE 32 37 17 20 1016.7 - -
24/07:00pm 24.1 21.2 16.1 61 4.9 ESE 26 30 14 16 1016.3 - -
24/06:30pm 23.6 21.8 15.4 60 4.9 ESE 19 20 10 11 1015.9 - -
24/06:00pm 23.8 22.8 15.6 60 4.9 ESE 15 17 8 9 1015.5 1015.4 -
24/05:30pm 24.1 22.9 15.1 57 5.4 ESE 15 17 8 9 1015.2 - -
24/05:00pm 24.5 22.9 15.1 55 5.6 ESE 17 19 9 10 1014.9 - -
24/04:30pm 24.6 22.5 14.7 54 5.9 ESE 19 20 10 11 1014.6 - -
24/04:00pm 24.4 22.3 15.1 56 5.6 ESE 20 24 11 13 1014.4 - -
24/03:30pm 24.6 22.4 15.0 55 5.7 ESE 20 22 11 12 1014.5 - -
24/03:00pm 24.4 21.7 13.6 51 6.3 ESE 20 22 11 12 1014.6 1014.5 -
24/02:30pm 25.3 23.2 14.7 51 6.3 ESE 19 22 10 12 1014.9 - -
24/02:00pm 25.8 22.7 13.3 46 7.3 ESE 22 26 12 14 1015.3 - -
24/01:30pm 25.1 22.0 13.3 48 6.9 ESE 22 28 12 15 1015.7 - -
24/01:00pm 26.1 21.8 13.2 44 7.5 ESE 28 33 15 18 1016.0 - -
24/12:30pm 24.7 20.1 13.6 50 6.5 ESE 30 37 16 20 1016.3 - -
24/12:00pm 24.7 19.2 12.6 47 7.0 ESE 33 39 18 21 1016.7 1016.6 -

Other Formats:

Comma delimited format used in spreadsheet applications
http://www.bom.gov.au/fwo/IDW60801/IDW60801.94310.axf

JavaScript Object Notation format (JSON) in row-major order
http://www.bom.gov.au/fwo/IDW60801/IDW60801.94310.json